sensor_id;sensor_type;location;lat;lon;timestamp;P1;durP1;ratioP1;P2;durP2;ratioP2
45059;SDS011;30799;49.060;9.312;2023-04-25T00:00:51;1.38;;;0.70;;
45059;SDS011;30799;49.060;9.312;2023-04-25T00:03:18;1.17;;;0.73;;
45059;SDS011;30799;49.060;9.312;2023-04-25T00:05:45;0.75;;;0.70;;
45059;SDS011;30799;49.060;9.312;2023-04-25T00:08:12;0.60;;;0.60;;
45059;SDS011;30799;49.060;9.312;2023-04-25T00:10:39;0.77;;;0.70;;
45059;SDS011;30799;49.060;9.312;2023-04-25T00:13:05;0.65;;;0.65;;
45059;SDS011;30799;49.060;9.312;2023-04-25T00:15:34;0.80;;;0.80;;
45059;SDS011;30799;49.060;9.312;2023-04-25T00:18:02;1.13;;;0.80;;
45059;SDS011;30799;49.060;9.312;2023-04-25T00:20:29;0.73;;;0.73;;
45059;SDS011;30799;49.060;9.312;2023-04-25T00:22:56;0.70;;;0.70;;
45059;SDS011;30799;49.060;9.312;2023-04-25T00:25:22;0.60;;;0.60;;
45059;SDS011;30799;49.060;9.312;2023-04-25T00:27:49;0.80;;;0.80;;
45059;SDS011;30799;49.060;9.312;2023-04-25T00:30:16;0.70;;;0.70;;
45059;SDS011;30799;49.060;9.312;2023-04-25T00:32:42;0.60;;;0.60;;
45059;SDS011;30799;49.060;9.312;2023-04-25T00:35:09;0.75;;;0.73;;
45059;SDS011;30799;49.060;9.312;2023-04-25T00:37:36;0.60;;;0.60;;
45059;SDS011;30799;49.060;9.312;2023-04-25T00:40:04;0.75;;;0.68;;
45059;SDS011;30799;49.060;9.312;2023-04-25T00:42:32;0.75;;;0.75;;
45059;SDS011;30799;49.060;9.312;2023-04-25T00:44:59;0.80;;;0.80;;
45059;SDS011;30799;49.060;9.312;2023-04-25T00:47:27;1.27;;;0.82;;
45059;SDS011;30799;49.060;9.312;2023-04-25T00:49:54;0.50;;;0.50;;
45059;SDS011;30799;49.060;9.312;2023-04-25T00:52:21;0.60;;;0.60;;
45059;SDS011;30799;49.060;9.312;2023-04-25T00:54:48;0.70;;;0.70;;
45059;SDS011;30799;49.060;9.312;2023-04-25T00:57:14;0.77;;;0.60;;
45059;SDS011;30799;49.060;9.312;2023-04-25T00:59:42;0.82;;;0.80;;
45059;SDS011;30799;49.060;9.312;2023-04-25T01:02:12;0.70;;;0.70;;
45059;SDS011;30799;49.060;9.312;2023-04-25T01:04:39;1.85;;;0.70;;
45059;SDS011;30799;49.060;9.312;2023-04-25T01:07:06;0.63;;;0.63;;
45059;SDS011;30799;49.060;9.312;2023-04-25T01:09:33;0.60;;;0.60;;
45059;SDS011;30799;49.060;9.312;2023-04-25T01:11:59;0.50;;;0.50;;
45059;SDS011;30799;49.060;9.312;2023-04-25T01:14:27;0.82;;;0.70;;
45059;SDS011;30799;49.060;9.312;2023-04-25T01:16:53;1.02;;;0.70;;
45059;SDS011;30799;49.060;9.312;2023-04-25T01:19:20;0.93;;;0.63;;
45059;SDS011;30799;49.060;9.312;2023-04-25T01:21:47;0.70;;;0.70;;
45059;SDS011;30799;49.060;9.312;2023-04-25T01:24:14;0.60;;;0.60;;
45059;SDS011;30799;49.060;9.312;2023-04-25T01:26:41;0.70;;;0.70;;
45059;SDS011;30799;49.060;9.312;2023-04-25T01:29:16;0.70;;;0.70;;
45059;SDS011;30799;49.060;9.312;2023-04-25T01:31:44;0.70;;;0.70;;
45059;SDS011;30799;49.060;9.312;2023-04-25T01:34:11;0.50;;;0.50;;
45059;SDS011;30799;49.060;9.312;2023-04-25T01:36:41;0.60;;;0.60;;
45059;SDS011;30799;49.060;9.312;2023-04-25T01:39:07;0.80;;;0.70;;
45059;SDS011;30799;49.060;9.312;2023-04-25T01:41:35;0.85;;;0.52;;
45059;SDS011;30799;49.060;9.312;2023-04-25T01:44:01;0.50;;;0.50;;
45059;SDS011;30799;49.060;9.312;2023-04-25T01:46:29;0.50;;;0.50;;
45059;SDS011;30799;49.060;9.312;2023-04-25T01:48:56;0.85;;;0.77;;
45059;SDS011;30799;49.060;9.312;2023-04-25T01:51:23;1.00;;;0.70;;
45059;SDS011;30799;49.060;9.312;2023-04-25T01:53:50;0.80;;;0.60;;
45059;SDS011;30799;49.060;9.312;2023-04-25T01:56:17;0.77;;;0.65;;
45059;SDS011;30799;49.060;9.312;2023-04-25T01:58:45;0.60;;;0.60;;
45059;SDS011;30799;49.060;9.312;2023-04-25T02:01:11;0.52;;;0.52;;
45059;SDS011;30799;49.060;9.312;2023-04-25T02:03:38;0.70;;;0.52;;
45059;SDS011;30799;49.060;9.312;2023-04-25T02:06:05;0.60;;;0.60;;
45059;SDS011;30799;49.060;9.312;2023-04-25T02:08:32;0.70;;;0.70;;
45059;SDS011;30799;49.060;9.312;2023-04-25T02:10:59;0.60;;;0.60;;
45059;SDS011;30799;49.060;9.312;2023-04-25T02:13:26;0.85;;;0.70;;
45059;SDS011;30799;49.060;9.312;2023-04-25T02:15:52;0.60;;;0.60;;
45059;SDS011;30799;49.060;9.312;2023-04-25T02:18:19;0.60;;;0.60;;
45059;SDS011;30799;49.060;9.312;2023-04-25T02:20:47;0.70;;;0.70;;
45059;SDS011;30799;49.060;9.312;2023-04-25T02:23:14;0.65;;;0.60;;
45059;SDS011;30799;49.060;9.312;2023-04-25T02:25:41;0.57;;;0.50;;
45059;SDS011;30799;49.060;9.312;2023-04-25T02:28:08;0.68;;;0.60;;
45059;SDS011;30799;49.060;9.312;2023-04-25T02:30:35;0.60;;;0.60;;
45059;SDS011;30799;49.060;9.312;2023-04-25T02:33:02;0.55;;;0.55;;
45059;SDS011;30799;49.060;9.312;2023-04-25T02:35:28;0.60;;;0.60;;
45059;SDS011;30799;49.060;9.312;2023-04-25T02:37:55;0.40;;;0.40;;
45059;SDS011;30799;49.060;9.312;2023-04-25T02:40:22;0.47;;;0.47;;
45059;SDS011;30799;49.060;9.312;2023-04-25T02:42:48;0.60;;;0.60;;
45059;SDS011;30799;49.060;9.312;2023-04-25T02:45:15;0.68;;;0.60;;
45059;SDS011;30799;49.060;9.312;2023-04-25T02:47:42;0.60;;;0.60;;
45059;SDS011;30799;49.060;9.312;2023-04-25T02:50:08;0.50;;;0.50;;
45059;SDS011;30799;49.060;9.312;2023-04-25T02:52:35;0.73;;;0.57;;
45059;SDS011;30799;49.060;9.312;2023-04-25T02:55:02;0.60;;;0.60;;
45059;SDS011;30799;49.060;9.312;2023-04-25T02:57:29;0.63;;;0.63;;
45059;SDS011;30799;49.060;9.312;2023-04-25T02:59:56;0.70;;;0.70;;
45059;SDS011;30799;49.060;9.312;2023-04-25T03:02:22;0.52;;;0.50;;
45059;SDS011;30799;49.060;9.312;2023-04-25T03:04:49;0.55;;;0.55;;
45059;SDS011;30799;49.060;9.312;2023-04-25T03:07:16;0.60;;;0.60;;
45059;SDS011;30799;49.060;9.312;2023-04-25T03:09:42;0.50;;;0.50;;
45059;SDS011;30799;49.060;9.312;2023-04-25T03:12:09;0.70;;;0.70;;
45059;SDS011;30799;49.060;9.312;2023-04-25T03:14:36;0.57;;;0.57;;
45059;SDS011;30799;49.060;9.312;2023-04-25T03:17:02;0.63;;;0.50;;
45059;SDS011;30799;49.060;9.312;2023-04-25T03:19:29;0.60;;;0.60;;
45059;SDS011;30799;49.060;9.312;2023-04-25T03:21:56;0.60;;;0.60;;
45059;SDS011;30799;49.060;9.312;2023-04-25T03:24:23;0.60;;;0.60;;
45059;SDS011;30799;49.060;9.312;2023-04-25T03:26:49;0.60;;;0.52;;
45059;SDS011;30799;49.060;9.312;2023-04-25T03:29:16;0.43;;;0.43;;
45059;SDS011;30799;49.060;9.312;2023-04-25T03:31:43;0.50;;;0.50;;
45059;SDS011;30799;49.060;9.312;2023-04-25T03:34:09;0.50;;;0.50;;
45059;SDS011;30799;49.060;9.312;2023-04-25T03:36:36;0.40;;;0.40;;
45059;SDS011;30799;49.060;9.312;2023-04-25T03:39:06;0.60;;;0.60;;
45059;SDS011;30799;49.060;9.312;2023-04-25T03:41:32;0.70;;;0.70;;
45059;SDS011;30799;49.060;9.312;2023-04-25T03:43:59;0.77;;;0.70;;
45059;SDS011;30799;49.060;9.312;2023-04-25T03:46:26;0.50;;;0.50;;
45059;SDS011;30799;49.060;9.312;2023-04-25T03:48:52;0.50;;;0.50;;
45059;SDS011;30799;49.060;9.312;2023-04-25T03:51:19;0.70;;;0.55;;
45059;SDS011;30799;49.060;9.312;2023-04-25T03:53:47;0.75;;;0.70;;
45059;SDS011;30799;49.060;9.312;2023-04-25T03:56:14;1.63;;;0.70;;
45059;SDS011;30799;49.060;9.312;2023-04-25T03:58:41;0.50;;;0.50;;
45059;SDS011;30799;49.060;9.312;2023-04-25T04:01:08;0.60;;;0.60;;
45059;SDS011;30799;49.060;9.312;2023-04-25T04:03:35;0.60;;;0.60;;
45059;SDS011;30799;49.060;9.312;2023-04-25T04:06:06;0.50;;;0.50;;
45059;SDS011;30799;49.060;9.312;2023-04-25T04:08:33;0.60;;;0.60;;
45059;SDS011;30799;49.060;9.312;2023-04-25T04:10:59;0.57;;;0.57;;
45059;SDS011;30799;49.060;9.312;2023-04-25T04:13:26;0.45;;;0.45;;
45059;SDS011;30799;49.060;9.312;2023-04-25T04:15:54;0.43;;;0.43;;
45059;SDS011;30799;49.060;9.312;2023-04-25T04:18:21;0.57;;;0.57;;
45059;SDS011;30799;49.060;9.312;2023-04-25T04:20:48;0.50;;;0.50;;
45059;SDS011;30799;49.060;9.312;2023-04-25T04:23:15;0.63;;;0.63;;
45059;SDS011;30799;49.060;9.312;2023-04-25T04:25:41;0.50;;;0.50;;
45059;SDS011;30799;49.060;9.312;2023-04-25T04:28:08;0.55;;;0.55;;
45059;SDS011;30799;49.060;9.312;2023-04-25T04:30:37;0.50;;;0.50;;
45059;SDS011;30799;49.060;9.312;2023-04-25T04:33:05;0.65;;;0.65;;
45059;SDS011;30799;49.060;9.312;2023-04-25T04:35:32;3.92;;;0.60;;
45059;SDS011;30799;49.060;9.312;2023-04-25T04:37:58;1.50;;;0.43;;
45059;SDS011;30799;49.060;9.312;2023-04-25T04:40:25;4.38;;;0.40;;
45059;SDS011;30799;49.060;9.312;2023-04-25T04:42:52;1.48;;;0.52;;
45059;SDS011;30799;49.060;9.312;2023-04-25T04:45:19;1.70;;;0.55;;
45059;SDS011;30799;49.060;9.312;2023-04-25T04:47:46;1.15;;;0.50;;
45059;SDS011;30799;49.060;9.312;2023-04-25T04:50:14;0.70;;;0.70;;
45059;SDS011;30799;49.060;9.312;2023-04-25T04:52:42;2.40;;;0.80;;
45059;SDS011;30799;49.060;9.312;2023-04-25T04:55:09;1.23;;;0.90;;
45059;SDS011;30799;49.060;9.312;2023-04-25T04:57:35;2.97;;;1.13;;
45059;SDS011;30799;49.060;9.312;2023-04-25T05:00:05;2.75;;;1.30;;
45059;SDS011;30799;49.060;9.312;2023-04-25T05:02:37;4.22;;;1.20;;
45059;SDS011;30799;49.060;9.312;2023-04-25T05:05:04;3.95;;;1.33;;
45059;SDS011;30799;49.060;9.312;2023-04-25T05:07:31;4.60;;;1.30;;
45059;SDS011;30799;49.060;9.312;2023-04-25T05:09:58;2.97;;;1.08;;
45059;SDS011;30799;49.060;9.312;2023-04-25T05:12:25;5.20;;;2.00;;
45059;SDS011;30799;49.060;9.312;2023-04-25T05:14:52;10.13;;;1.70;;
45059;SDS011;30799;49.060;9.312;2023-04-25T05:17:18;3.08;;;1.17;;
45059;SDS011;30799;49.060;9.312;2023-04-25T05:19:45;5.00;;;2.40;;
45059;SDS011;30799;49.060;9.312;2023-04-25T05:22:11;7.65;;;2.60;;
45059;SDS011;30799;49.060;9.312;2023-04-25T05:24:38;3.63;;;2.00;;
45059;SDS011;30799;49.060;9.312;2023-04-25T05:27:05;5.13;;;2.00;;
45059;SDS011;30799;49.060;9.312;2023-04-25T05:29:32;3.92;;;1.70;;
45059;SDS011;30799;49.060;9.312;2023-04-25T05:31:59;3.33;;;1.60;;
45059;SDS011;30799;49.060;9.312;2023-04-25T05:34:25;4.53;;;1.85;;
45059;SDS011;30799;49.060;9.312;2023-04-25T05:36:52;2.65;;;1.60;;
45059;SDS011;30799;49.060;9.312;2023-04-25T05:39:19;5.13;;;1.55;;
45059;SDS011;30799;49.060;9.312;2023-04-25T05:41:46;3.50;;;1.80;;
45059;SDS011;30799;49.060;9.312;2023-04-25T05:44:12;4.45;;;1.58;;
45059;SDS011;30799;49.060;9.312;2023-04-25T05:46:39;2.42;;;1.38;;
45059;SDS011;30799;49.060;9.312;2023-04-25T05:49:05;2.17;;;1.33;;
45059;SDS011;30799;49.060;9.312;2023-04-25T05:51:33;2.13;;;1.35;;
45059;SDS011;30799;49.060;9.312;2023-04-25T05:53:59;1.50;;;1.40;;
45059;SDS011;30799;49.060;9.312;2023-04-25T05:56:26;2.60;;;1.50;;
45059;SDS011;30799;49.060;9.312;2023-04-25T05:58:53;2.72;;;1.50;;
45059;SDS011;30799;49.060;9.312;2023-04-25T06:01:19;3.25;;;1.70;;
45059;SDS011;30799;49.060;9.312;2023-04-25T06:03:46;1.40;;;1.30;;
45059;SDS011;30799;49.060;9.312;2023-04-25T06:06:13;1.50;;;1.38;;
45059;SDS011;30799;49.060;9.312;2023-04-25T06:08:40;1.65;;;1.45;;
45059;SDS011;30799;49.060;9.312;2023-04-25T06:11:07;1.73;;;1.30;;
45059;SDS011;30799;49.060;9.312;2023-04-25T06:13:33;1.48;;;1.10;;
45059;SDS011;30799;49.060;9.312;2023-04-25T06:16:00;1.45;;;1.15;;
45059;SDS011;30799;49.060;9.312;2023-04-25T06:18:27;3.55;;;1.40;;
45059;SDS011;30799;49.060;9.312;2023-04-25T06:20:54;3.92;;;1.40;;
45059;SDS011;30799;49.060;9.312;2023-04-25T06:23:20;1.48;;;1.38;;
45059;SDS011;30799;49.060;9.312;2023-04-25T06:25:47;1.40;;;1.27;;
45059;SDS011;30799;49.060;9.312;2023-04-25T06:28:13;1.80;;;1.33;;
45059;SDS011;30799;49.060;9.312;2023-04-25T06:30:40;2.17;;;1.35;;
45059;SDS011;30799;49.060;9.312;2023-04-25T06:33:07;1.30;;;1.20;;
45059;SDS011;30799;49.060;9.312;2023-04-25T06:35:34;1.48;;;1.35;;
45059;SDS011;30799;49.060;9.312;2023-04-25T06:38:01;2.67;;;1.30;;
45059;SDS011;30799;49.060;9.312;2023-04-25T06:40:28;3.22;;;1.30;;
45059;SDS011;30799;49.060;9.312;2023-04-25T06:42:54;1.77;;;1.20;;
45059;SDS011;30799;49.060;9.312;2023-04-25T06:45:21;1.42;;;1.08;;
45059;SDS011;30799;49.060;9.312;2023-04-25T06:47:48;2.35;;;1.38;;
45059;SDS011;30799;49.060;9.312;2023-04-25T06:50:14;1.35;;;1.25;;
45059;SDS011;30799;49.060;9.312;2023-04-25T06:52:41;2.53;;;1.40;;
45059;SDS011;30799;49.060;9.312;2023-04-25T06:55:08;2.78;;;1.20;;
45059;SDS011;30799;49.060;9.312;2023-04-25T06:57:35;1.42;;;1.30;;
45059;SDS011;30799;49.060;9.312;2023-04-25T07:00:02;1.45;;;1.20;;
45059;SDS011;30799;49.060;9.312;2023-04-25T07:02:31;1.65;;;1.30;;
45059;SDS011;30799;49.060;9.312;2023-04-25T07:04:58;1.17;;;1.15;;
45059;SDS011;30799;49.060;9.312;2023-04-25T07:07:26;2.80;;;1.30;;
45059;SDS011;30799;49.060;9.312;2023-04-25T07:09:53;1.25;;;0.88;;
45059;SDS011;30799;49.060;9.312;2023-04-25T07:12:19;1.35;;;1.25;;
45059;SDS011;30799;49.060;9.312;2023-04-25T07:14:46;3.10;;;1.40;;
45059;SDS011;30799;49.060;9.312;2023-04-25T07:17:13;2.20;;;1.25;;
45059;SDS011;30799;49.060;9.312;2023-04-25T07:19:39;1.02;;;0.93;;
45059;SDS011;30799;49.060;9.312;2023-04-25T07:22:06;2.28;;;1.52;;
45059;SDS011;30799;49.060;9.312;2023-04-25T07:24:33;1.80;;;1.10;;
45059;SDS011;30799;49.060;9.312;2023-04-25T07:26:59;1.92;;;1.25;;
45059;SDS011;30799;49.060;9.312;2023-04-25T07:29:27;2.45;;;1.10;;
45059;SDS011;30799;49.060;9.312;2023-04-25T07:31:54;2.70;;;1.55;;
45059;SDS011;30799;49.060;9.312;2023-04-25T07:34:21;2.38;;;1.25;;
45059;SDS011;30799;49.060;9.312;2023-04-25T07:36:47;1.13;;;1.10;;
45059;SDS011;30799;49.060;9.312;2023-04-25T07:39:14;2.10;;;1.30;;
45059;SDS011;30799;49.060;9.312;2023-04-25T07:41:41;2.58;;;1.30;;
45059;SDS011;30799;49.060;9.312;2023-04-25T07:44:07;1.58;;;1.30;;
45059;SDS011;30799;49.060;9.312;2023-04-25T07:46:34;2.63;;;1.27;;
45059;SDS011;30799;49.060;9.312;2023-04-25T07:49:01;1.27;;;1.17;;
45059;SDS011;30799;49.060;9.312;2023-04-25T07:51:27;1.20;;;1.10;;
45059;SDS011;30799;49.060;9.312;2023-04-25T07:53:54;1.52;;;1.17;;
45059;SDS011;30799;49.060;9.312;2023-04-25T07:56:21;1.20;;;1.20;;
45059;SDS011;30799;49.060;9.312;2023-04-25T07:58:47;1.73;;;1.50;;
45059;SDS011;30799;49.060;9.312;2023-04-25T08:01:14;1.52;;;1.42;;
45059;SDS011;30799;49.060;9.312;2023-04-25T08:03:41;1.65;;;1.30;;
45059;SDS011;30799;49.060;9.312;2023-04-25T08:06:08;1.27;;;1.17;;
45059;SDS011;30799;49.060;9.312;2023-04-25T08:08:35;1.23;;;1.15;;
45059;SDS011;30799;49.060;9.312;2023-04-25T08:11:02;1.23;;;1.20;;
45059;SDS011;30799;49.060;9.312;2023-04-25T08:13:29;1.35;;;1.25;;
45059;SDS011;30799;49.060;9.312;2023-04-25T08:15:55;1.33;;;1.23;;
45059;SDS011;30799;49.060;9.312;2023-04-25T08:18:22;1.38;;;1.27;;
45059;SDS011;30799;49.060;9.312;2023-04-25T08:20:49;1.30;;;1.20;;
45059;SDS011;30799;49.060;9.312;2023-04-25T08:23:15;1.23;;;1.13;;
45059;SDS011;30799;49.060;9.312;2023-04-25T08:25:42;1.30;;;1.15;;
45059;SDS011;30799;49.060;9.312;2023-04-25T08:28:09;1.00;;;1.00;;
45059;SDS011;30799;49.060;9.312;2023-04-25T08:30:36;1.73;;;1.27;;
45059;SDS011;30799;49.060;9.312;2023-04-25T08:33:03;1.35;;;1.25;;
45059;SDS011;30799;49.060;9.312;2023-04-25T08:35:30;1.30;;;1.20;;
45059;SDS011;30799;49.060;9.312;2023-04-25T08:37:56;1.10;;;1.10;;
45059;SDS011;30799;49.060;9.312;2023-04-25T08:40:23;1.80;;;1.40;;
45059;SDS011;30799;49.060;9.312;2023-04-25T08:42:59;1.20;;;1.10;;
45059;SDS011;30799;49.060;9.312;2023-04-25T08:45:29;1.58;;;1.48;;
45059;SDS011;30799;49.060;9.312;2023-04-25T08:47:58;1.30;;;1.20;;
45059;SDS011;30799;49.060;9.312;2023-04-25T08:50:26;1.27;;;1.17;;
45059;SDS011;30799;49.060;9.312;2023-04-25T08:52:53;1.40;;;1.30;;
45059;SDS011;30799;49.060;9.312;2023-04-25T08:55:22;1.00;;;1.00;;
45059;SDS011;30799;49.060;9.312;2023-04-25T08:57:49;1.20;;;1.10;;
45059;SDS011;30799;49.060;9.312;2023-04-25T09:00:16;1.58;;;1.30;;
45059;SDS011;30799;49.060;9.312;2023-04-25T09:02:44;1.48;;;1.20;;
45059;SDS011;30799;49.060;9.312;2023-04-25T09:05:13;1.33;;;1.20;;
45059;SDS011;30799;49.060;9.312;2023-04-25T09:07:40;1.10;;;1.00;;
45059;SDS011;30799;49.060;9.312;2023-04-25T09:10:07;0.98;;;0.98;;
45059;SDS011;30799;49.060;9.312;2023-04-25T09:12:34;1.23;;;1.10;;
45059;SDS011;30799;49.060;9.312;2023-04-25T09:15:03;1.27;;;1.20;;
45059;SDS011;30799;49.060;9.312;2023-04-25T09:17:30;1.23;;;1.13;;
45059;SDS011;30799;49.060;9.312;2023-04-25T09:20:05;1.13;;;1.08;;
45059;SDS011;30799;49.060;9.312;2023-04-25T09:22:34;1.40;;;1.30;;
45059;SDS011;30799;49.060;9.312;2023-04-25T09:25:08;2.40;;;1.45;;
45059;SDS011;30799;49.060;9.312;2023-04-25T09:27:37;1.23;;;1.10;;
45059;SDS011;30799;49.060;9.312;2023-04-25T09:30:27;2.55;;;1.48;;
45059;SDS011;30799;49.060;9.312;2023-04-25T09:33:06;1.13;;;1.13;;
45059;SDS011;30799;49.060;9.312;2023-04-25T09:35:38;1.80;;;1.45;;
45059;SDS011;30799;49.060;9.312;2023-04-25T09:38:14;1.48;;;1.20;;
45059;SDS011;30799;49.060;9.312;2023-04-25T09:40:45;1.10;;;1.00;;
45059;SDS011;30799;49.060;9.312;2023-04-25T09:43:19;2.22;;;1.23;;
45059;SDS011;30799;49.060;9.312;2023-04-25T09:45:47;1.20;;;1.10;;
45059;SDS011;30799;49.060;9.312;2023-04-25T09:48:20;1.77;;;1.50;;
45059;SDS011;30799;49.060;9.312;2023-04-25T09:51:03;1.10;;;1.10;;
45059;SDS011;30799;49.060;9.312;2023-04-25T09:53:32;1.48;;;1.38;;
45059;SDS011;30799;49.060;9.312;2023-04-25T09:56:00;2.15;;;1.13;;
45059;SDS011;30799;49.060;9.312;2023-04-25T09:58:29;1.40;;;1.30;;
45059;SDS011;30799;49.060;9.312;2023-04-25T10:00:59;1.58;;;1.25;;
45059;SDS011;30799;49.060;9.312;2023-04-25T10:03:32;1.40;;;1.30;;
45059;SDS011;30799;49.060;9.312;2023-04-25T10:06:02;1.73;;;1.27;;
45059;SDS011;30799;49.060;9.312;2023-04-25T10:08:32;1.20;;;1.10;;
45059;SDS011;30799;49.060;9.312;2023-04-25T10:11:00;1.25;;;1.17;;
45059;SDS011;30799;49.060;9.312;2023-04-25T10:13:30;1.10;;;1.00;;
45059;SDS011;30799;49.060;9.312;2023-04-25T10:15:58;2.03;;;1.20;;
45059;SDS011;30799;49.060;9.312;2023-04-25T10:18:27;1.50;;;1.40;;
45059;SDS011;30799;49.060;9.312;2023-04-25T10:20:55;1.10;;;1.00;;
45059;SDS011;30799;49.060;9.312;2023-04-25T10:23:23;1.08;;;1.05;;
45059;SDS011;30799;49.060;9.312;2023-04-25T10:25:51;1.20;;;1.10;;
45059;SDS011;30799;49.060;9.312;2023-04-25T10:28:19;1.35;;;1.10;;
45059;SDS011;30799;49.060;9.312;2023-04-25T10:30:56;1.23;;;1.13;;
45059;SDS011;30799;49.060;9.312;2023-04-25T10:33:34;2.05;;;1.20;;
45059;SDS011;30799;49.060;9.312;2023-04-25T10:36:10;1.30;;;1.20;;
45059;SDS011;30799;49.060;9.312;2023-04-25T10:38:38;1.80;;;1.10;;
45059;SDS011;30799;49.060;9.312;2023-04-25T10:41:06;1.25;;;1.15;;
45059;SDS011;30799;49.060;9.312;2023-04-25T10:43:40;1.27;;;1.20;;
45059;SDS011;30799;49.060;9.312;2023-04-25T10:46:27;1.50;;;1.38;;
45059;SDS011;30799;49.060;9.312;2023-04-25T10:48:59;1.83;;;1.50;;
45059;SDS011;30799;49.060;9.312;2023-04-25T10:54:18;1.23;;;1.13;;
45059;SDS011;30799;49.060;9.312;2023-04-25T10:56:46;1.20;;;1.08;;
45059;SDS011;30799;49.060;9.312;2023-04-25T10:59:15;1.30;;;1.20;;
45059;SDS011;30799;49.060;9.312;2023-04-25T11:04:30;1.25;;;1.05;;
45059;SDS011;30799;49.060;9.312;2023-04-25T11:09:34;1.42;;;1.33;;
45059;SDS011;30799;49.060;9.312;2023-04-25T11:12:04;1.80;;;1.30;;
45059;SDS011;30799;49.060;9.312;2023-04-25T11:14:33;1.50;;;1.40;;
45059;SDS011;30799;49.060;9.312;2023-04-25T11:16:59;1.27;;;1.17;;
45059;SDS011;30799;49.060;9.312;2023-04-25T11:19:30;1.10;;;1.10;;
45059;SDS011;30799;49.060;9.312;2023-04-25T11:21:57;1.15;;;1.15;;
45059;SDS011;30799;49.060;9.312;2023-04-25T11:24:26;1.40;;;1.30;;
45059;SDS011;30799;49.060;9.312;2023-04-25T11:26:54;1.50;;;1.40;;
45059;SDS011;30799;49.060;9.312;2023-04-25T11:29:27;1.05;;;1.00;;
45059;SDS011;30799;49.060;9.312;2023-04-25T11:31:58;1.23;;;1.13;;
45059;SDS011;30799;49.060;9.312;2023-04-25T11:34:27;1.13;;;1.05;;
45059;SDS011;30799;49.060;9.312;2023-04-25T11:36:57;1.23;;;1.13;;
45059;SDS011;30799;49.060;9.312;2023-04-25T11:39:24;1.20;;;1.10;;
45059;SDS011;30799;49.060;9.312;2023-04-25T11:41:51;1.20;;;1.13;;
45059;SDS011;30799;49.060;9.312;2023-04-25T11:44:19;1.40;;;1.20;;
45059;SDS011;30799;49.060;9.312;2023-04-25T11:46:46;1.38;;;1.20;;
45059;SDS011;30799;49.060;9.312;2023-04-25T11:49:14;1.83;;;1.30;;
45059;SDS011;30799;49.060;9.312;2023-04-25T11:51:42;1.05;;;1.05;;
45059;SDS011;30799;49.060;9.312;2023-04-25T11:54:10;1.35;;;1.20;;
45059;SDS011;30799;49.060;9.312;2023-04-25T11:56:41;0.98;;;0.98;;
45059;SDS011;30799;49.060;9.312;2023-04-25T11:59:09;0.90;;;0.90;;
45059;SDS011;30799;49.060;9.312;2023-04-25T12:01:38;1.08;;;1.00;;
45059;SDS011;30799;49.060;9.312;2023-04-25T12:04:13;1.00;;;1.00;;
45059;SDS011;30799;49.060;9.312;2023-04-25T12:06:48;1.02;;;1.02;;
45059;SDS011;30799;49.060;9.312;2023-04-25T12:09:18;1.23;;;1.20;;
45059;SDS011;30799;49.060;9.312;2023-04-25T12:11:55;1.20;;;1.10;;
45059;SDS011;30799;49.060;9.312;2023-04-25T12:14:25;1.42;;;1.00;;
45059;SDS011;30799;49.060;9.312;2023-04-25T12:16:57;1.30;;;1.10;;
45059;SDS011;30799;49.060;9.312;2023-04-25T12:19:28;0.93;;;0.93;;
45059;SDS011;30799;49.060;9.312;2023-04-25T12:22:00;1.38;;;1.15;;
45059;SDS011;30799;49.060;9.312;2023-04-25T12:24:28;1.10;;;1.10;;
45059;SDS011;30799;49.060;9.312;2023-04-25T12:27:00;1.90;;;1.20;;
45059;SDS011;30799;49.060;9.312;2023-04-25T12:29:29;1.10;;;1.10;;
45059;SDS011;30799;49.060;9.312;2023-04-25T12:32:14;1.30;;;1.20;;
45059;SDS011;30799;49.060;9.312;2023-04-25T12:34:41;1.70;;;1.20;;
45059;SDS011;30799;49.060;9.312;2023-04-25T12:37:08;1.00;;;0.90;;
45059;SDS011;30799;49.060;9.312;2023-04-25T12:39:35;1.00;;;1.00;;
45059;SDS011;30799;49.060;9.312;2023-04-25T12:42:02;1.00;;;1.00;;
45059;SDS011;30799;49.060;9.312;2023-04-25T12:44:32;1.10;;;1.10;;
45059;SDS011;30799;49.060;9.312;2023-04-25T12:46:58;0.90;;;0.90;;
45059;SDS011;30799;49.060;9.312;2023-04-25T12:49:26;1.20;;;1.10;;
45059;SDS011;30799;49.060;9.312;2023-04-25T12:51:53;0.98;;;0.98;;
45059;SDS011;30799;49.060;9.312;2023-04-25T12:54:19;1.92;;;1.30;;
45059;SDS011;30799;49.060;9.312;2023-04-25T12:56:46;1.83;;;1.10;;
45059;SDS011;30799;49.060;9.312;2023-04-25T12:59:13;1.75;;;1.10;;
45059;SDS011;30799;49.060;9.312;2023-04-25T13:01:40;1.10;;;1.10;;
45059;SDS011;30799;49.060;9.312;2023-04-25T13:04:06;1.23;;;1.13;;
45059;SDS011;30799;49.060;9.312;2023-04-25T13:06:33;1.25;;;1.15;;
45059;SDS011;30799;49.060;9.312;2023-04-25T13:09:00;1.67;;;1.20;;
45059;SDS011;30799;49.060;9.312;2023-04-25T13:11:27;1.25;;;1.15;;
45059;SDS011;30799;49.060;9.312;2023-04-25T13:13:58;1.10;;;1.10;;
45059;SDS011;30799;49.060;9.312;2023-04-25T13:16:25;0.90;;;0.90;;
45059;SDS011;30799;49.060;9.312;2023-04-25T13:18:52;1.10;;;1.00;;
45059;SDS011;30799;49.060;9.312;2023-04-25T13:21:19;1.50;;;1.40;;
45059;SDS011;30799;49.060;9.312;2023-04-25T13:23:46;1.20;;;1.10;;
45059;SDS011;30799;49.060;9.312;2023-04-25T13:26:13;1.42;;;1.33;;
45059;SDS011;30799;49.060;9.312;2023-04-25T13:28:39;1.30;;;1.20;;
45059;SDS011;30799;49.060;9.312;2023-04-25T13:31:09;1.27;;;1.17;;
45059;SDS011;30799;49.060;9.312;2023-04-25T13:33:36;1.40;;;1.30;;
45059;SDS011;30799;49.060;9.312;2023-04-25T13:36:03;2.20;;;1.52;;
45059;SDS011;30799;49.060;9.312;2023-04-25T13:38:30;1.42;;;1.30;;
45059;SDS011;30799;49.060;9.312;2023-04-25T13:40:56;3.33;;;1.33;;
45059;SDS011;30799;49.060;9.312;2023-04-25T13:43:23;1.55;;;1.17;;
45059;SDS011;30799;49.060;9.312;2023-04-25T13:45:50;1.40;;;1.30;;
45059;SDS011;30799;49.060;9.312;2023-04-25T13:48:17;1.42;;;1.33;;
45059;SDS011;30799;49.060;9.312;2023-04-25T13:50:46;1.38;;;1.08;;
45059;SDS011;30799;49.060;9.312;2023-04-25T13:53:12;1.10;;;1.10;;
45059;SDS011;30799;49.060;9.312;2023-04-25T13:55:39;1.85;;;1.27;;
45059;SDS011;30799;49.060;9.312;2023-04-25T13:58:06;2.20;;;1.55;;
45059;SDS011;30799;49.060;9.312;2023-04-25T14:00:36;1.42;;;1.33;;
45059;SDS011;30799;49.060;9.312;2023-04-25T14:03:05;2.20;;;1.40;;
45059;SDS011;30799;49.060;9.312;2023-04-25T14:05:36;1.52;;;1.10;;
45059;SDS011;30799;49.060;9.312;2023-04-25T14:08:06;1.40;;;1.30;;
45059;SDS011;30799;49.060;9.312;2023-04-25T14:10:34;2.38;;;1.33;;
45059;SDS011;30799;49.060;9.312;2023-04-25T14:13:02;1.77;;;1.40;;
45059;SDS011;30799;49.060;9.312;2023-04-25T14:15:31;1.50;;;1.40;;
45059;SDS011;30799;49.060;9.312;2023-04-25T14:17:58;1.17;;;1.15;;
45059;SDS011;30799;49.060;9.312;2023-04-25T14:20:25;1.77;;;1.48;;
45059;SDS011;30799;49.060;9.312;2023-04-25T14:22:52;1.40;;;1.30;;
45059;SDS011;30799;49.060;9.312;2023-04-25T14:25:20;1.50;;;1.40;;
45059;SDS011;30799;49.060;9.312;2023-04-25T14:27:47;1.40;;;1.30;;
45059;SDS011;30799;49.060;9.312;2023-04-25T14:30:16;1.38;;;1.27;;
45059;SDS011;30799;49.060;9.312;2023-04-25T14:32:44;1.50;;;1.40;;
45059;SDS011;30799;49.060;9.312;2023-04-25T14:35:11;1.65;;;1.48;;
45059;SDS011;30799;49.060;9.312;2023-04-25T14:37:39;1.75;;;1.20;;
45059;SDS011;30799;49.060;9.312;2023-04-25T14:40:06;1.15;;;1.10;;
45059;SDS011;30799;49.060;9.312;2023-04-25T14:42:38;1.58;;;1.45;;
45059;SDS011;30799;49.060;9.312;2023-04-25T14:45:06;2.10;;;1.23;;
45059;SDS011;30799;49.060;9.312;2023-04-25T14:47:34;1.73;;;1.58;;
45059;SDS011;30799;49.060;9.312;2023-04-25T14:50:02;1.23;;;1.15;;
45059;SDS011;30799;49.060;9.312;2023-04-25T14:52:30;1.63;;;1.40;;
45059;SDS011;30799;49.060;9.312;2023-04-25T14:54:57;1.65;;;1.33;;
45059;SDS011;30799;49.060;9.312;2023-04-25T14:57:26;1.40;;;1.30;;
45059;SDS011;30799;49.060;9.312;2023-04-25T14:59:53;1.58;;;1.48;;